<?xml version="1.0" encoding="UTF-8" standalone="no" ?>
<gpx xmlns="http://www.topografix.com/GPX/1/1" xmlns:xsi="http://www.w3.org/2001/XMLSchema-instance" xsi:schemaLocation="http://www.topografix.com/GPX/1/1 http://www.topografix.com/GPX/1/1/gpx.xsd" version="1.1" creator="VisuGPX - https://www.visugpx.com">
  <metadata>
    <name>Situation des sentiers PRx de la vallée du Cavu au 30/06/2026</name>
    <desc><![CDATA[Sentiers APB PRx au 30/06/2026]]></desc>
  </metadata>
  <trk>
    <name><![CDATA[PR8 - Lora]]></name>
    <desc><![CDATA[Boucle au départ de Ranuchjaghja, tronçon commun Sapara Vardata (PR9) jusqu'à la piste de descente à la Ste-Lucie, boyau de raccourci pour fin piste Ste-Lucie, traversée Ste-Lucie, remontée Lora, sentier Lora-Funtanedda, pont de Marion et Ranuchjaghja]]></desc>
    <extensions>
      <line xmlns="http://www.topografix.com/GPX/gpx_style/0/2">
        <color>0000ff</color>
        <opacity>1</opacity>
        <width>4</width>
          <extensions>
            <sens>1</sens>
          </extensions>
      </line>
    </extensions>
    <trkseg>
      <trkpt lat="41.73263" lon="9.29262">
        <ele>180.8</ele>
      </trkpt>
      <trkpt lat="41.73268" lon="9.29246">
        <ele>183.1</ele>
      </trkpt>
      <trkpt lat="41.73273" lon="9.29235">
        <ele>184.8</ele>
      </trkpt>
      <trkpt lat="41.73278" lon="9.29225">
        <ele>245</ele>
        <time>2023-04-15T10:21:51Z</time>
      </trkpt>
      <trkpt lat="41.73281" lon="9.29224">
        <ele>247</ele>
        <time>2023-04-15T10:21:32Z</time>
      </trkpt>
      <trkpt lat="41.73283" lon="9.29222">
        <ele>249</ele>
        <time>2023-04-15T10:21:25Z</time>
      </trkpt>
      <trkpt lat="41.7329" lon="9.29226">
        <ele>251</ele>
        <time>2023-04-15T10:21:16Z</time>
      </trkpt>
      <trkpt lat="41.73294" lon="9.29226">
        <ele>252</ele>
        <time>2023-04-15T10:21:14Z</time>
      </trkpt>
      <trkpt lat="41.73299" lon="9.29222">
        <ele>254</ele>
        <time>2023-04-15T10:21:08Z</time>
      </trkpt>
      <trkpt lat="41.73308" lon="9.29223">
        <ele>256</ele>
        <time>2023-04-15T10:21:00Z</time>
      </trkpt>
      <trkpt lat="41.73311" lon="9.29222">
        <ele>257</ele>
        <time>2023-04-15T10:20:57Z</time>
      </trkpt>
      <trkpt lat="41.73314" lon="9.2922">
        <ele>259</ele>
        <time>2023-04-15T10:20:52Z</time>
      </trkpt>
      <trkpt lat="41.73313" lon="9.29216">
        <ele>260</ele>
        <time>2023-04-15T10:20:49Z</time>
      </trkpt>
      <trkpt lat="41.73313" lon="9.29213">
        <ele>261</ele>
        <time>2023-04-15T10:20:45Z</time>
      </trkpt>
      <trkpt lat="41.73314" lon="9.29209">
        <ele>263</ele>
        <time>2023-04-15T10:20:42Z</time>
      </trkpt>
      <trkpt lat="41.73316" lon="9.29206">
        <ele>264</ele>
        <time>2023-04-15T10:20:38Z</time>
      </trkpt>
      <trkpt lat="41.73319" lon="9.29203">
        <ele>265</ele>
        <time>2023-04-15T10:20:35Z</time>
      </trkpt>
      <trkpt lat="41.73321" lon="9.29199">
        <ele>267</ele>
        <time>2023-04-15T10:20:32Z</time>
      </trkpt>
      <trkpt lat="41.73324" lon="9.29198">
        <ele>269</ele>
        <time>2023-04-15T10:20:26Z</time>
      </trkpt>
      <trkpt lat="41.73326" lon="9.29195">
        <ele>270</ele>
        <time>2023-04-15T10:20:24Z</time>
      </trkpt>
      <trkpt lat="41.73331" lon="9.29189">
        <ele>274</ele>
        <time>2023-04-15T10:20:16Z</time>
      </trkpt>
      <trkpt lat="41.73333" lon="9.29186">
        <ele>275</ele>
        <time>2023-04-15T10:20:08Z</time>
      </trkpt>
      <trkpt lat="41.73335" lon="9.29182">
        <ele>200.3</ele>
        <time>2023-04-15T10:20:05Z</time>
      </trkpt>
      <trkpt lat="41.73339" lon="9.29177">
        <ele>201.5</ele>
        <time>2023-04-15T10:20:00Z</time>
      </trkpt>
      <trkpt lat="41.73342" lon="9.29178">
        <ele>201.5</ele>
      </trkpt>
      <trkpt lat="41.73346" lon="9.29176">
        <ele>202.3</ele>
        <time>2023-04-15T10:19:55Z</time>
      </trkpt>
      <trkpt lat="41.73346" lon="9.29167">
        <ele>283</ele>
        <time>2023-04-15T10:19:49Z</time>
      </trkpt>
      <trkpt lat="41.73349" lon="9.29164">
        <ele>285</ele>
        <time>2023-04-15T10:19:39Z</time>
      </trkpt>
      <trkpt lat="41.73353" lon="9.29161">
        <ele>206.4</ele>
        <time>2023-04-15T10:19:31Z</time>
      </trkpt>
      <trkpt lat="41.73356" lon="9.29162">
        <ele>287</ele>
        <time>2023-04-15T10:19:29Z</time>
      </trkpt>
      <trkpt lat="41.73354" lon="9.29156">
        <ele>207.8</ele>
        <time>2023-04-15T10:19:26Z</time>
      </trkpt>
      <trkpt lat="41.73355" lon="9.2915">
        <ele>209.5</ele>
      </trkpt>
      <trkpt lat="41.73355" lon="9.29146">
        <ele>210.6</ele>
        <time>2023-04-15T10:19:14Z</time>
      </trkpt>
      <trkpt lat="41.73357" lon="9.29143">
        <ele>211.5</ele>
      </trkpt>
      <trkpt lat="41.73366" lon="9.29137">
        <ele>290</ele>
        <time>2023-04-15T10:19:00Z</time>
      </trkpt>
      <trkpt lat="41.7337" lon="9.29136">
        <ele>291</ele>
        <time>2023-04-15T10:18:55Z</time>
      </trkpt>
      <trkpt lat="41.73374" lon="9.29136">
        <ele>291</ele>
        <time>2023-04-15T10:18:51Z</time>
      </trkpt>
      <trkpt lat="41.73378" lon="9.29136">
        <ele>292</ele>
        <time>2023-04-15T10:18:46Z</time>
      </trkpt>
      <trkpt lat="41.7338" lon="9.2914">
        <ele>292</ele>
        <time>2023-04-15T10:18:43Z</time>
      </trkpt>
      <trkpt lat="41.73384" lon="9.29141">
        <ele>292</ele>
        <time>2023-04-15T10:18:39Z</time>
      </trkpt>
      <trkpt lat="41.73388" lon="9.2914">
        <ele>293</ele>
        <time>2023-04-15T10:18:37Z</time>
      </trkpt>
      <trkpt lat="41.73391" lon="9.29138">
        <ele>293</ele>
        <time>2023-04-15T10:18:33Z</time>
      </trkpt>
      <trkpt lat="41.73394" lon="9.29134">
        <ele>295</ele>
        <time>2023-04-15T10:18:25Z</time>
      </trkpt>
      <trkpt lat="41.73398" lon="9.29133">
        <ele>295</ele>
        <time>2023-04-15T10:18:08Z</time>
      </trkpt>
      <trkpt lat="41.73402" lon="9.29132">
        <ele>296</ele>
        <time>2023-04-15T10:18:03Z</time>
      </trkpt>
      <trkpt lat="41.73406" lon="9.29133">
        <ele>296</ele>
        <time>2023-04-15T10:18:00Z</time>
      </trkpt>
      <trkpt lat="41.73409" lon="9.29134">
        <ele>296</ele>
        <time>2023-04-15T10:17:57Z</time>
      </trkpt>
      <trkpt lat="41.73411" lon="9.29132">
        <ele>297</ele>
        <time>2023-04-15T10:17:53Z</time>
      </trkpt>
      <trkpt lat="41.73415" lon="9.29135">
        <ele>297</ele>
        <time>2023-04-15T10:17:50Z</time>
      </trkpt>
      <trkpt lat="41.7342" lon="9.29137">
        <ele>297</ele>
        <time>2023-04-15T10:17:46Z</time>
      </trkpt>
      <trkpt lat="41.73423" lon="9.29132">
        <ele>297</ele>
        <time>2023-04-15T10:17:41Z</time>
      </trkpt>
      <trkpt lat="41.7343" lon="9.29127">
        <ele>297</ele>
        <time>2023-04-15T10:17:35Z</time>
      </trkpt>
      <trkpt lat="41.73447" lon="9.29122">
        <ele>298</ele>
        <time>2023-04-15T10:17:23Z</time>
      </trkpt>
      <trkpt lat="41.73455" lon="9.29121">
        <ele>298</ele>
        <time>2023-04-15T10:17:17Z</time>
      </trkpt>
      <trkpt lat="41.73459" lon="9.29119">
        <ele>299</ele>
        <time>2023-04-15T10:17:12Z</time>
      </trkpt>
      <trkpt lat="41.73478" lon="9.29128">
        <ele>299</ele>
        <time>2023-04-15T10:16:56Z</time>
      </trkpt>
      <trkpt lat="41.73483" lon="9.29127">
        <ele>300</ele>
        <time>2023-04-15T10:16:53Z</time>
      </trkpt>
      <trkpt lat="41.73487" lon="9.29124">
        <ele>300</ele>
        <time>2023-04-15T10:16:50Z</time>
      </trkpt>
      <trkpt lat="41.73491" lon="9.29121">
        <ele>300</ele>
        <time>2023-04-15T10:16:47Z</time>
      </trkpt>
      <trkpt lat="41.73494" lon="9.2912">
        <ele>300</ele>
        <time>2023-04-15T10:16:39Z</time>
      </trkpt>
      <trkpt lat="41.73507" lon="9.29126">
        <ele>301</ele>
        <time>2023-04-15T10:16:28Z</time>
      </trkpt>
      <trkpt lat="41.7351" lon="9.29129">
        <ele>301</ele>
        <time>2023-04-15T10:16:25Z</time>
      </trkpt>
      <trkpt lat="41.73519" lon="9.29128">
        <ele>301</ele>
        <time>2023-04-15T10:16:18Z</time>
      </trkpt>
      <trkpt lat="41.73527" lon="9.29131">
        <ele>302</ele>
        <time>2023-04-15T10:16:12Z</time>
      </trkpt>
      <trkpt lat="41.7353" lon="9.29134">
        <ele>302</ele>
        <time>2023-04-15T10:16:10Z</time>
      </trkpt>
      <trkpt lat="41.73535" lon="9.29136">
        <ele>302</ele>
        <time>2023-04-15T10:16:07Z</time>
      </trkpt>
      <trkpt lat="41.73539" lon="9.29136">
        <ele>302</ele>
        <time>2023-04-15T10:16:03Z</time>
      </trkpt>
      <trkpt lat="41.73543" lon="9.29135">
        <ele>302</ele>
        <time>2023-04-15T10:16:00Z</time>
      </trkpt>
      <trkpt lat="41.7356" lon="9.29129">
        <ele>303</ele>
        <time>2023-04-15T10:15:48Z</time>
      </trkpt>
      <trkpt lat="41.73564" lon="9.29127">
        <ele>303</ele>
        <time>2023-04-15T10:15:45Z</time>
      </trkpt>
      <trkpt lat="41.7359" lon="9.29128">
        <ele>305</ele>
        <time>2023-04-15T10:15:22Z</time>
      </trkpt>
      <trkpt lat="41.73598" lon="9.29124">
        <ele>305</ele>
        <time>2023-04-15T10:15:17Z</time>
      </trkpt>
      <trkpt lat="41.73602" lon="9.2912">
        <ele>305</ele>
        <time>2023-04-15T10:15:15Z</time>
      </trkpt>
      <trkpt lat="41.73613" lon="9.29113">
        <ele>305</ele>
        <time>2023-04-15T10:15:06Z</time>
      </trkpt>
      <trkpt lat="41.73625" lon="9.29108">
        <ele>306</ele>
        <time>2023-04-15T10:14:58Z</time>
      </trkpt>
      <trkpt lat="41.73628" lon="9.29104">
        <ele>306</ele>
        <time>2023-04-15T10:14:56Z</time>
      </trkpt>
      <trkpt lat="41.73632" lon="9.29102">
        <ele>306</ele>
        <time>2023-04-15T10:14:52Z</time>
      </trkpt>
      <trkpt lat="41.7364" lon="9.29104">
        <ele>307</ele>
        <time>2023-04-15T10:14:45Z</time>
      </trkpt>
      <trkpt lat="41.73648" lon="9.29105">
        <ele>307</ele>
        <time>2023-04-15T10:14:38Z</time>
      </trkpt>
      <trkpt lat="41.73653" lon="9.29106">
        <ele>307</ele>
        <time>2023-04-15T10:14:34Z</time>
      </trkpt>
      <trkpt lat="41.73671" lon="9.29106">
        <ele>308</ele>
        <time>2023-04-15T10:14:16Z</time>
      </trkpt>
      <trkpt lat="41.73676" lon="9.29105">
        <ele>308</ele>
        <time>2023-04-15T10:14:13Z</time>
      </trkpt>
      <trkpt lat="41.73683" lon="9.29103">
        <ele>309</ele>
        <time>2023-04-15T10:14:07Z</time>
      </trkpt>
      <trkpt lat="41.73692" lon="9.29102">
        <ele>309</ele>
        <time>2023-04-15T10:14:00Z</time>
      </trkpt>
      <trkpt lat="41.73696" lon="9.291">
        <ele>310</ele>
        <time>2023-04-15T10:13:55Z</time>
      </trkpt>
      <trkpt lat="41.73699" lon="9.29098">
        <ele>310</ele>
        <time>2023-04-15T10:13:52Z</time>
      </trkpt>
      <trkpt lat="41.73703" lon="9.29094">
        <ele>310</ele>
        <time>2023-04-15T10:13:47Z</time>
      </trkpt>
      <trkpt lat="41.73712" lon="9.29094">
        <ele>311</ele>
        <time>2023-04-15T10:13:39Z</time>
      </trkpt>
      <trkpt lat="41.73719" lon="9.29097">
        <ele>311</ele>
        <time>2023-04-15T10:13:31Z</time>
      </trkpt>
      <trkpt lat="41.7373" lon="9.29097">
        <ele>312</ele>
        <time>2023-04-15T10:13:18Z</time>
      </trkpt>
      <trkpt lat="41.73734" lon="9.29096">
        <ele>313</ele>
        <time>2023-04-15T10:13:15Z</time>
      </trkpt>
      <trkpt lat="41.73738" lon="9.29094">
        <ele>313</ele>
        <time>2023-04-15T10:13:12Z</time>
      </trkpt>
      <trkpt lat="41.73755" lon="9.29088">
        <ele>314</ele>
        <time>2023-04-15T10:13:00Z</time>
      </trkpt>
      <trkpt lat="41.73758" lon="9.29086">
        <ele>314</ele>
        <time>2023-04-15T10:12:57Z</time>
      </trkpt>
      <trkpt lat="41.73763" lon="9.29078">
        <ele>315</ele>
        <time>2023-04-15T10:12:51Z</time>
      </trkpt>
      <trkpt lat="41.73767" lon="9.29076">
        <ele>315</ele>
        <time>2023-04-15T10:12:47Z</time>
      </trkpt>
      <trkpt lat="41.73771" lon="9.29076">
        <ele>315</ele>
        <time>2023-04-15T10:12:44Z</time>
      </trkpt>
      <trkpt lat="41.73775" lon="9.29074">
        <ele>315</ele>
        <time>2023-04-15T10:12:40Z</time>
      </trkpt>
      <trkpt lat="41.73778" lon="9.29072">
        <ele>316</ele>
        <time>2023-04-15T10:12:37Z</time>
      </trkpt>
      <trkpt lat="41.73782" lon="9.29072">
        <ele>316</ele>
        <time>2023-04-15T10:12:34Z</time>
      </trkpt>
      <trkpt lat="41.73798" lon="9.29067">
        <ele>317</ele>
        <time>2023-04-15T10:12:18Z</time>
      </trkpt>
      <trkpt lat="41.73806" lon="9.29067">
        <ele>318</ele>
        <time>2023-04-15T10:12:13Z</time>
      </trkpt>
      <trkpt lat="41.7381" lon="9.29064">
        <ele>318</ele>
        <time>2023-04-15T10:12:09Z</time>
      </trkpt>
      <trkpt lat="41.73814" lon="9.29065">
        <ele>318</ele>
        <time>2023-04-15T10:12:05Z</time>
      </trkpt>
      <trkpt lat="41.73821" lon="9.29062">
        <ele>319</ele>
        <time>2023-04-15T10:11:56Z</time>
      </trkpt>
      <trkpt lat="41.73825" lon="9.29062">
        <ele>320</ele>
        <time>2023-04-15T10:11:53Z</time>
      </trkpt>
      <trkpt lat="41.73829" lon="9.29062">
        <ele>320</ele>
        <time>2023-04-15T10:11:49Z</time>
      </trkpt>
      <trkpt lat="41.73833" lon="9.29063">
        <ele>321</ele>
        <time>2023-04-15T10:11:45Z</time>
      </trkpt>
      <trkpt lat="41.73836" lon="9.29065">
        <ele>321</ele>
        <time>2023-04-15T10:11:35Z</time>
      </trkpt>
      <trkpt lat="41.73839" lon="9.29066">
        <ele>322</ele>
        <time>2023-04-15T10:11:27Z</time>
      </trkpt>
      <trkpt lat="41.73843" lon="9.29065">
        <ele>322</ele>
        <time>2023-04-15T10:11:21Z</time>
      </trkpt>
      <trkpt lat="41.73846" lon="9.29065">
        <ele>323</ele>
        <time>2023-04-15T10:11:11Z</time>
      </trkpt>
      <trkpt lat="41.73849" lon="9.29062">
        <ele>323</ele>
        <time>2023-04-15T10:11:08Z</time>
      </trkpt>
      <trkpt lat="41.73855" lon="9.29056">
        <ele>324</ele>
        <time>2023-04-15T10:11:03Z</time>
      </trkpt>
      <trkpt lat="41.73863" lon="9.29048">
        <ele>324</ele>
        <time>2023-04-15T10:10:54Z</time>
      </trkpt>
      <trkpt lat="41.73875" lon="9.29042">
        <ele>325</ele>
        <time>2023-04-15T10:10:41Z</time>
      </trkpt>
      <trkpt lat="41.7388" lon="9.29038">
        <ele>326</ele>
        <time>2023-04-15T10:10:36Z</time>
      </trkpt>
      <trkpt lat="41.73884" lon="9.29036">
        <ele>326</ele>
        <time>2023-04-15T10:10:34Z</time>
      </trkpt>
      <trkpt lat="41.73888" lon="9.29033">
        <ele>326</ele>
        <time>2023-04-15T10:10:30Z</time>
      </trkpt>
      <trkpt lat="41.73889" lon="9.29028">
        <ele>327</ele>
        <time>2023-04-15T10:10:23Z</time>
      </trkpt>
      <trkpt lat="41.73891" lon="9.29024">
        <ele>327</ele>
        <time>2023-04-15T10:10:18Z</time>
      </trkpt>
      <trkpt lat="41.73898" lon="9.29015">
        <ele>327</ele>
        <time>2023-04-15T10:10:08Z</time>
      </trkpt>
      <trkpt lat="41.739" lon="9.29012">
        <ele>328</ele>
        <time>2023-04-15T10:10:05Z</time>
      </trkpt>
      <trkpt lat="41.73904" lon="9.29011">
        <ele>328</ele>
        <time>2023-04-15T10:10:03Z</time>
      </trkpt>
      <trkpt lat="41.73907" lon="9.29012">
        <ele>328</ele>
        <time>2023-04-15T10:10:01Z</time>
      </trkpt>
      <trkpt lat="41.7392" lon="9.29005">
        <ele>329</ele>
        <time>2023-04-15T10:09:42Z</time>
      </trkpt>
      <trkpt lat="41.73923" lon="9.29008">
        <ele>329</ele>
        <time>2023-04-15T10:09:37Z</time>
      </trkpt>
      <trkpt lat="41.73926" lon="9.29008">
        <ele>329</ele>
        <time>2023-04-15T10:09:33Z</time>
      </trkpt>
      <trkpt lat="41.73929" lon="9.29007">
        <ele>330</ele>
        <time>2023-04-15T10:09:29Z</time>
      </trkpt>
      <trkpt lat="41.73932" lon="9.29009">
        <ele>330</ele>
        <time>2023-04-15T10:09:26Z</time>
      </trkpt>
      <trkpt lat="41.73935" lon="9.29009">
        <ele>330</ele>
        <time>2023-04-15T10:09:24Z</time>
      </trkpt>
      <trkpt lat="41.73939" lon="9.29009">
        <ele>330</ele>
        <time>2023-04-15T10:09:21Z</time>
      </trkpt>
      <trkpt lat="41.73952" lon="9.29007">
        <ele>331</ele>
        <time>2023-04-15T10:09:03Z</time>
      </trkpt>
      <trkpt lat="41.73953" lon="9.2901">
        <ele>332</ele>
        <time>2023-04-15T10:08:58Z</time>
      </trkpt>
      <trkpt lat="41.73956" lon="9.29013">
        <ele>332</ele>
        <time>2023-04-15T10:08:53Z</time>
      </trkpt>
      <trkpt lat="41.73962" lon="9.29013">
        <ele>332</ele>
        <time>2023-04-15T10:08:46Z</time>
      </trkpt>
      <trkpt lat="41.73964" lon="9.29013">
        <ele>333</ele>
        <time>2023-04-15T10:08:41Z</time>
      </trkpt>
      <trkpt lat="41.73967" lon="9.29011">
        <ele>333</ele>
        <time>2023-04-15T10:08:37Z</time>
      </trkpt>
      <trkpt lat="41.7397" lon="9.29009">
        <ele>333</ele>
        <time>2023-04-15T10:08:32Z</time>
      </trkpt>
      <trkpt lat="41.73972" lon="9.29011">
        <ele>333</ele>
        <time>2023-04-15T10:08:28Z</time>
      </trkpt>
      <trkpt lat="41.73975" lon="9.2901">
        <ele>334</ele>
        <time>2023-04-15T10:08:22Z</time>
      </trkpt>
      <trkpt lat="41.73979" lon="9.29011">
        <ele>334</ele>
        <time>2023-04-15T10:08:19Z</time>
      </trkpt>
      <trkpt lat="41.73981" lon="9.29008">
        <ele>334</ele>
        <time>2023-04-15T10:08:13Z</time>
      </trkpt>
      <trkpt lat="41.73984" lon="9.29008">
        <ele>334</ele>
        <time>2023-04-15T10:08:10Z</time>
      </trkpt>
      <trkpt lat="41.73987" lon="9.29008">
        <ele>334</ele>
        <time>2023-04-15T10:08:07Z</time>
      </trkpt>
      <trkpt lat="41.73993" lon="9.29013">
        <ele>334</ele>
        <time>2023-04-15T10:08:02Z</time>
      </trkpt>
      <trkpt lat="41.74009" lon="9.29013">
        <ele>335</ele>
        <time>2023-04-15T10:07:42Z</time>
      </trkpt>
      <trkpt lat="41.74013" lon="9.29011">
        <ele>335</ele>
        <time>2023-04-15T10:07:39Z</time>
      </trkpt>
      <trkpt lat="41.74021" lon="9.2901">
        <ele>335</ele>
        <time>2023-04-15T10:07:30Z</time>
      </trkpt>
      <trkpt lat="41.74024" lon="9.29006">
        <ele>335</ele>
        <time>2023-04-15T10:07:24Z</time>
      </trkpt>
      <trkpt lat="41.74037" lon="9.28995">
        <ele>336</ele>
        <time>2023-04-15T10:07:10Z</time>
      </trkpt>
      <trkpt lat="41.7404" lon="9.28991">
        <ele>336</ele>
        <time>2023-04-15T10:07:06Z</time>
      </trkpt>
      <trkpt lat="41.74045" lon="9.2897">
        <ele>336</ele>
        <time>2023-04-15T10:06:51Z</time>
      </trkpt>
      <trkpt lat="41.74041" lon="9.2896">
        <ele>336</ele>
        <time>2023-04-15T10:06:42Z</time>
      </trkpt>
      <trkpt lat="41.74038" lon="9.28954">
        <ele>336</ele>
        <time>2023-04-15T10:06:39Z</time>
      </trkpt>
      <trkpt lat="41.74038" lon="9.28949">
        <ele>336</ele>
        <time>2023-04-15T10:06:35Z</time>
      </trkpt>
      <trkpt lat="41.74037" lon="9.28944">
        <ele>336</ele>
        <time>2023-04-15T10:06:29Z</time>
      </trkpt>
      <trkpt lat="41.7404" lon="9.28939">
        <ele>336</ele>
        <time>2023-04-15T10:06:26Z</time>
      </trkpt>
      <trkpt lat="41.74046" lon="9.28929">
        <ele>336</ele>
        <time>2023-04-15T10:06:21Z</time>
      </trkpt>
      <trkpt lat="41.74049" lon="9.28921">
        <ele>336</ele>
        <time>2023-04-15T10:06:17Z</time>
      </trkpt>
      <trkpt lat="41.74051" lon="9.28916">
        <ele>337</ele>
        <time>2023-04-15T10:06:14Z</time>
      </trkpt>
      <trkpt lat="41.74053" lon="9.28911">
        <ele>337</ele>
        <time>2023-04-15T10:06:08Z</time>
      </trkpt>
      <trkpt lat="41.74065" lon="9.28896">
        <ele>337</ele>
        <time>2023-04-15T10:05:43Z</time>
      </trkpt>
      <trkpt lat="41.74068" lon="9.28887">
        <ele>337</ele>
        <time>2023-04-15T10:05:36Z</time>
      </trkpt>
      <trkpt lat="41.74074" lon="9.28873">
        <ele>337</ele>
        <time>2023-04-15T10:05:26Z</time>
      </trkpt>
      <trkpt lat="41.74078" lon="9.28867">
        <ele>337</ele>
        <time>2023-04-15T10:05:16Z</time>
      </trkpt>
      <trkpt lat="41.74081" lon="9.28863">
        <ele>337</ele>
        <time>2023-04-15T10:05:11Z</time>
      </trkpt>
      <trkpt lat="41.74092" lon="9.28849">
        <ele>337</ele>
        <time>2023-04-15T10:04:55Z</time>
      </trkpt>
      <trkpt lat="41.74096" lon="9.28845">
        <ele>337</ele>
        <time>2023-04-15T10:04:51Z</time>
      </trkpt>
      <trkpt lat="41.7411" lon="9.28819">
        <ele>337</ele>
        <time>2023-04-15T10:04:23Z</time>
      </trkpt>
      <trkpt lat="41.74111" lon="9.28811">
        <ele>337</ele>
        <time>2023-04-15T10:04:19Z</time>
      </trkpt>
      <trkpt lat="41.74122" lon="9.28804">
        <ele>338</ele>
        <time>2023-04-15T10:04:04Z</time>
      </trkpt>
      <trkpt lat="41.74124" lon="9.28801">
        <ele>338</ele>
        <time>2023-04-15T10:03:54Z</time>
      </trkpt>
      <trkpt lat="41.74129" lon="9.28794">
        <ele>338</ele>
        <time>2023-04-15T10:03:44Z</time>
      </trkpt>
      <trkpt lat="41.7413" lon="9.28786">
        <ele>338</ele>
        <time>2023-04-15T10:03:38Z</time>
      </trkpt>
      <trkpt lat="41.7413" lon="9.28776">
        <ele>338</ele>
        <time>2023-04-15T10:03:30Z</time>
      </trkpt>
      <trkpt lat="41.7413" lon="9.28772">
        <ele>338</ele>
        <time>2023-04-15T10:03:25Z</time>
      </trkpt>
      <trkpt lat="41.74133" lon="9.2875">
        <ele>338</ele>
        <time>2023-04-15T10:02:51Z</time>
      </trkpt>
      <trkpt lat="41.74134" lon="9.28733">
        <ele>338</ele>
        <time>2023-04-15T10:02:41Z</time>
      </trkpt>
      <trkpt lat="41.74138" lon="9.28729">
        <ele>338</ele>
        <time>2023-04-15T10:02:38Z</time>
      </trkpt>
      <trkpt lat="41.74145" lon="9.28723">
        <ele>338</ele>
        <time>2023-04-15T10:02:30Z</time>
      </trkpt>
      <trkpt lat="41.74147" lon="9.28719">
        <ele>338</ele>
        <time>2023-04-15T10:02:25Z</time>
      </trkpt>
      <trkpt lat="41.74152" lon="9.28698">
        <ele>338</ele>
        <time>2023-04-15T10:02:16Z</time>
      </trkpt>
      <trkpt lat="41.74156" lon="9.28691">
        <ele>338</ele>
        <time>2023-04-15T10:02:12Z</time>
      </trkpt>
      <trkpt lat="41.74161" lon="9.28678">
        <ele>339</ele>
        <time>2023-04-15T10:02:06Z</time>
      </trkpt>
      <trkpt lat="41.74161" lon="9.28662">
        <ele>339</ele>
        <time>2023-04-15T10:01:58Z</time>
      </trkpt>
      <trkpt lat="41.74166" lon="9.28659">
        <ele>339</ele>
        <time>2023-04-15T10:01:54Z</time>
      </trkpt>
      <trkpt lat="41.74171" lon="9.28653">
        <ele>339</ele>
        <time>2023-04-15T10:01:40Z</time>
      </trkpt>
      <trkpt lat="41.74175" lon="9.28648">
        <ele>339</ele>
        <time>2023-04-15T10:01:37Z</time>
      </trkpt>
      <trkpt lat="41.74181" lon="9.28642">
        <ele>339</ele>
        <time>2023-04-15T10:01:30Z</time>
      </trkpt>
      <trkpt lat="41.74183" lon="9.28638">
        <ele>339</ele>
        <time>2023-04-15T10:01:27Z</time>
      </trkpt>
      <trkpt lat="41.74187" lon="9.28634">
        <ele>338</ele>
        <time>2023-04-15T10:01:12Z</time>
      </trkpt>
      <trkpt lat="41.7419" lon="9.2863">
        <ele>338</ele>
        <time>2023-04-15T10:01:04Z</time>
      </trkpt>
      <trkpt lat="41.74194" lon="9.28627">
        <ele>338</ele>
        <time>2023-04-15T10:00:56Z</time>
      </trkpt>
      <trkpt lat="41.74196" lon="9.28624">
        <ele>338</ele>
        <time>2023-04-15T10:00:45Z</time>
      </trkpt>
      <trkpt lat="41.74198" lon="9.28619">
        <ele>337</ele>
        <time>2023-04-15T10:00:15Z</time>
      </trkpt>
      <trkpt lat="41.74202" lon="9.28619">
        <ele>338</ele>
        <time>2023-04-15T10:00:03Z</time>
      </trkpt>
      <trkpt lat="41.74207" lon="9.28616">
        <ele>338</ele>
        <time>2023-04-15T09:59:55Z</time>
      </trkpt>
      <trkpt lat="41.7421" lon="9.28617">
        <ele>338</ele>
        <time>2023-04-15T09:59:47Z</time>
      </trkpt>
      <trkpt lat="41.74216" lon="9.28617">
        <ele>338</ele>
        <time>2023-04-15T09:59:39Z</time>
      </trkpt>
      <trkpt lat="41.74224" lon="9.28612">
        <ele>339</ele>
        <time>2023-04-15T09:59:23Z</time>
      </trkpt>
      <trkpt lat="41.74231" lon="9.28612">
        <ele>340</ele>
        <time>2023-04-15T09:59:09Z</time>
      </trkpt>
      <trkpt lat="41.74235" lon="9.28611">
        <ele>341</ele>
        <time>2023-04-15T09:59:03Z</time>
      </trkpt>
      <trkpt lat="41.74238" lon="9.28604">
        <ele>341</ele>
        <time>2023-04-15T09:58:49Z</time>
      </trkpt>
      <trkpt lat="41.74239" lon="9.28598">
        <ele>341</ele>
        <time>2023-04-15T09:58:38Z</time>
      </trkpt>
      <trkpt lat="41.7424" lon="9.28593">
        <ele>341</ele>
        <time>2023-04-15T09:58:35Z</time>
      </trkpt>
      <trkpt lat="41.74243" lon="9.28589">
        <ele>342</ele>
        <time>2023-04-15T09:58:32Z</time>
      </trkpt>
      <trkpt lat="41.74253" lon="9.28584">
        <ele>343</ele>
        <time>2023-04-15T09:58:13Z</time>
      </trkpt>
      <trkpt lat="41.74256" lon="9.28581">
        <ele>344</ele>
        <time>2023-04-15T09:57:42Z</time>
      </trkpt>
      <trkpt lat="41.74256" lon="9.28577">
        <ele>344</ele>
        <time>2023-04-15T09:57:38Z</time>
      </trkpt>
      <trkpt lat="41.74257" lon="9.28571">
        <ele>344</ele>
        <time>2023-04-15T09:57:34Z</time>
      </trkpt>
      <trkpt lat="41.74261" lon="9.28562">
        <ele>345</ele>
        <time>2023-04-15T09:57:24Z</time>
      </trkpt>
      <trkpt lat="41.74263" lon="9.28559">
        <ele>346</ele>
        <time>2023-04-15T09:57:21Z</time>
      </trkpt>
      <trkpt lat="41.74266" lon="9.28558">
        <ele>346</ele>
        <time>2023-04-15T09:57:17Z</time>
      </trkpt>
      <trkpt lat="41.74268" lon="9.28555">
        <ele>347</ele>
        <time>2023-04-15T09:56:49Z</time>
      </trkpt>
      <trkpt lat="41.74271" lon="9.28554">
        <ele>347</ele>
        <time>2023-04-15T09:56:43Z</time>
      </trkpt>
      <trkpt lat="41.74272" lon="9.2855">
        <ele>350</ele>
        <time>2023-04-15T09:56:39Z</time>
      </trkpt>
      <trkpt lat="41.74271" lon="9.28545">
        <ele>350</ele>
        <time>2023-04-15T09:56:27Z</time>
      </trkpt>
      <trkpt lat="41.7427" lon="9.28543">
        <ele>352</ele>
        <time>2023-04-15T09:55:39Z</time>
      </trkpt>
      <trkpt lat="41.7427" lon="9.28539">
        <ele>353</ele>
        <time>2023-04-15T09:55:36Z</time>
      </trkpt>
      <trkpt lat="41.7427" lon="9.28537">
        <ele>323.6</ele>
      </trkpt>
      <trkpt lat="41.74269" lon="9.28535">
        <ele>323.6</ele>
      </trkpt>
      <trkpt lat="41.74269" lon="9.28534">
        <ele>355</ele>
        <time>2023-04-15T09:55:32Z</time>
      </trkpt>
      <trkpt lat="41.74268" lon="9.2853">
        <ele>356</ele>
        <time>2023-04-15T09:55:26Z</time>
      </trkpt>
      <trkpt lat="41.74269" lon="9.28526">
        <ele>357</ele>
        <time>2023-04-15T09:55:23Z</time>
      </trkpt>
      <trkpt lat="41.74275" lon="9.28516">
        <ele>359</ele>
        <time>2023-04-15T09:55:13Z</time>
      </trkpt>
      <trkpt lat="41.74275" lon="9.28511">
        <ele>362</ele>
        <time>2023-04-15T09:54:50Z</time>
      </trkpt>
      <trkpt lat="41.74279" lon="9.28511">
        <ele>365</ele>
        <time>2023-04-15T09:54:49Z</time>
      </trkpt>
      <trkpt lat="41.74279" lon="9.28511">
        <ele>366</ele>
        <time>2023-04-15T09:54:48Z</time>
      </trkpt>
      <trkpt lat="41.74282" lon="9.28499">
        <ele>323.3</ele>
      </trkpt>
      <trkpt lat="41.7429" lon="9.28485">
        <ele>322.7</ele>
      </trkpt>
      <trkpt lat="41.74296" lon="9.28461">
        <ele>321.8</ele>
      </trkpt>
      <trkpt lat="41.74298" lon="9.28439">
        <ele>320.6</ele>
      </trkpt>
      <trkpt lat="41.74292" lon="9.28409">
        <ele>318.9</ele>
      </trkpt>
      <trkpt lat="41.74286" lon="9.28395">
        <ele>318.1</ele>
      </trkpt>
      <trkpt lat="41.74282" lon="9.28389">
        <ele>317.8</ele>
      </trkpt>
      <trkpt lat="41.74278" lon="9.28382">
        <ele>317.6</ele>
      </trkpt>
      <trkpt lat="41.74271" lon="9.28374">
        <ele>318.4</ele>
      </trkpt>
      <trkpt lat="41.74272" lon="9.28365">
        <ele>316.4</ele>
      </trkpt>
      <trkpt lat="41.74272" lon="9.28361">
        <ele>315.9</ele>
        <time>2022-04-30T10:51:26Z</time>
      </trkpt>
      <trkpt lat="41.74274" lon="9.28354">
        <ele>313.7</ele>
        <time>2022-04-30T10:51:10Z</time>
      </trkpt>
      <trkpt lat="41.74275" lon="9.28347">
        <ele>311.8</ele>
        <time>2022-04-30T10:50:56Z</time>
      </trkpt>
      <trkpt lat="41.74278" lon="9.2834">
        <ele>309.3</ele>
        <time>2022-04-30T10:50:40Z</time>
      </trkpt>
      <trkpt lat="41.74276" lon="9.28335">
        <ele>308.9</ele>
      </trkpt>
      <trkpt lat="41.74274" lon="9.28327">
        <ele>308.1</ele>
        <time>2022-04-30T10:50:23Z</time>
      </trkpt>
      <trkpt lat="41.7427" lon="9.28316">
        <ele>307.8</ele>
        <time>2022-04-30T10:50:14Z</time>
      </trkpt>
      <trkpt lat="41.74268" lon="9.28304">
        <ele>307.3</ele>
        <time>2022-04-30T10:50:06Z</time>
      </trkpt>
      <trkpt lat="41.7427" lon="9.28294">
        <ele>308.2</ele>
      </trkpt>
      <trkpt lat="41.74274" lon="9.28292">
        <ele>307.7</ele>
        <time>2022-04-30T10:48:32Z</time>
      </trkpt>
      <trkpt lat="41.7428" lon="9.2829">
        <ele>307.9</ele>
      </trkpt>
      <trkpt lat="41.74286" lon="9.28289">
        <ele>308.8</ele>
      </trkpt>
      <trkpt lat="41.74293" lon="9.28291">
        <ele>309.5</ele>
        <time>2022-04-30T10:48:14Z</time>
      </trkpt>
      <trkpt lat="41.74303" lon="9.2829">
        <ele>311.1</ele>
        <time>2022-04-30T10:48:08Z</time>
      </trkpt>
      <trkpt lat="41.74314" lon="9.2829">
        <ele>311.8</ele>
        <time>2022-04-30T10:48:04Z</time>
      </trkpt>
      <trkpt lat="41.74322" lon="9.2829">
        <ele>312</ele>
        <time>2022-04-30T10:47:56Z</time>
      </trkpt>
      <trkpt lat="41.74331" lon="9.28286">
        <ele>313.1</ele>
        <time>2022-04-30T10:47:44Z</time>
      </trkpt>
      <trkpt lat="41.74342" lon="9.28285">
        <ele>313.6</ele>
      </trkpt>
      <trkpt lat="41.74353" lon="9.28284">
        <ele>313.7</ele>
        <time>2022-04-30T10:47:24Z</time>
      </trkpt>
      <trkpt lat="41.7436" lon="9.28285">
        <ele>313.6</ele>
        <time>2022-04-30T10:47:14Z</time>
      </trkpt>
      <trkpt lat="41.74367" lon="9.2828">
        <ele>314.2</ele>
        <time>2022-04-30T10:47:06Z</time>
      </trkpt>
      <trkpt lat="41.74374" lon="9.28276">
        <ele>314.4</ele>
      </trkpt>
      <trkpt lat="41.74384" lon="9.28272">
        <ele>314.1</ele>
        <time>2022-04-30T10:46:57Z</time>
      </trkpt>
      <trkpt lat="41.7439" lon="9.28268">
        <ele>314.3</ele>
        <time>2022-04-30T10:46:48Z</time>
      </trkpt>
      <trkpt lat="41.74397" lon="9.28262">
        <ele>315.1</ele>
        <time>2022-04-30T10:46:39Z</time>
      </trkpt>
      <trkpt lat="41.74403" lon="9.28256">
        <ele>315.4</ele>
        <time>2022-04-30T10:46:30Z</time>
      </trkpt>
      <trkpt lat="41.74413" lon="9.28251">
        <ele>315.2</ele>
      </trkpt>
      <trkpt lat="41.7442" lon="9.28246">
        <ele>315.2</ele>
        <time>2022-04-30T10:46:07Z</time>
      </trkpt>
      <trkpt lat="41.74423" lon="9.28238">
        <ele>315.5</ele>
        <time>2022-04-30T10:45:54Z</time>
      </trkpt>
      <trkpt lat="41.7443" lon="9.28231">
        <ele>315.1</ele>
        <time>2022-04-30T10:45:41Z</time>
      </trkpt>
      <trkpt lat="41.74433" lon="9.2822">
        <ele>314.4</ele>
        <time>2022-04-30T10:45:32Z</time>
      </trkpt>
      <trkpt lat="41.74436" lon="9.28209">
        <ele>313</ele>
      </trkpt>
      <trkpt lat="41.74438" lon="9.28201">
        <ele>311.8</ele>
      </trkpt>
      <trkpt lat="41.74438" lon="9.28191">
        <ele>310.5</ele>
        <time>2022-04-30T10:44:40Z</time>
      </trkpt>
      <trkpt lat="41.74437" lon="9.28179">
        <ele>308.6</ele>
        <time>2022-04-30T10:44:29Z</time>
      </trkpt>
      <trkpt lat="41.74438" lon="9.28169">
        <ele>306.2</ele>
        <time>2022-04-30T10:44:19Z</time>
      </trkpt>
      <trkpt lat="41.74434" lon="9.28155">
        <ele>304.9</ele>
        <time>2022-04-30T10:44:00Z</time>
      </trkpt>
      <trkpt lat="41.74452" lon="9.28159">
        <ele>302.1</ele>
      </trkpt>
      <trkpt lat="41.74494" lon="9.28162">
        <ele>294.1</ele>
      </trkpt>
      <trkpt lat="41.74509" lon="9.28173">
        <ele>293.4</ele>
      </trkpt>
      <trkpt lat="41.74528" lon="9.2819">
        <ele>291.4</ele>
      </trkpt>
      <trkpt lat="41.74541" lon="9.28189">
        <ele>287.2</ele>
      </trkpt>
      <trkpt lat="41.74556" lon="9.28195">
        <ele>283</ele>
      </trkpt>
      <trkpt lat="41.74575" lon="9.28193">
        <ele>275.9</ele>
      </trkpt>
      <trkpt lat="41.74607" lon="9.28183">
        <ele>262.3</ele>
      </trkpt>
      <trkpt lat="41.74627" lon="9.28184">
        <ele>255.1</ele>
      </trkpt>
      <trkpt lat="41.74648" lon="9.28177">
        <ele>248.1</ele>
      </trkpt>
      <trkpt lat="41.74652" lon="9.28216">
        <ele>245</ele>
      </trkpt>
      <trkpt lat="41.74657" lon="9.28244">
        <ele>243.5</ele>
      </trkpt>
      <trkpt lat="41.74672" lon="9.28284">
        <ele>238.1</ele>
      </trkpt>
      <trkpt lat="41.74692" lon="9.28366">
        <ele>229.8</ele>
      </trkpt>
      <trkpt lat="41.74701" lon="9.28381">
        <ele>230.3</ele>
      </trkpt>
      <trkpt lat="41.74713" lon="9.28383">
        <ele>232.1</ele>
      </trkpt>
      <trkpt lat="41.74719" lon="9.28383">
        <ele>233.2</ele>
      </trkpt>
      <trkpt lat="41.74721" lon="9.28358">
        <ele>237.3</ele>
      </trkpt>
      <trkpt lat="41.74751" lon="9.28378">
        <ele>248.5</ele>
      </trkpt>
      <trkpt lat="41.74741" lon="9.28329">
        <ele>250.2</ele>
      </trkpt>
      <trkpt lat="41.74754" lon="9.28291">
        <ele>256.3</ele>
      </trkpt>
      <trkpt lat="41.74794" lon="9.28261">
        <ele>266.7</ele>
      </trkpt>
      <trkpt lat="41.74797" lon="9.28242">
        <ele>268.2</ele>
      </trkpt>
      <trkpt lat="41.74805" lon="9.28224">
        <ele>271.7</ele>
      </trkpt>
      <trkpt lat="41.74828" lon="9.28228">
        <ele>275.3</ele>
      </trkpt>
      <trkpt lat="41.74858" lon="9.28251">
        <ele>280.6</ele>
      </trkpt>
      <trkpt lat="41.74912" lon="9.28289">
        <ele>287.5</ele>
      </trkpt>
      <trkpt lat="41.74976" lon="9.28335">
        <ele>285.2</ele>
      </trkpt>
      <trkpt lat="41.74972" lon="9.28383">
        <ele>285.8</ele>
      </trkpt>
      <trkpt lat="41.7497" lon="9.28453">
        <ele>286</ele>
      </trkpt>
      <trkpt lat="41.7497" lon="9.28453">
        <ele>286</ele>
      </trkpt>
      <trkpt lat="41.74969" lon="9.28458">
        <ele>291</ele>
        <time>2022-01-16T10:55:46Z</time>
      </trkpt>
      <trkpt lat="41.74966" lon="9.28454">
        <ele>290</ele>
        <time>2022-01-16T10:55:42Z</time>
      </trkpt>
      <trkpt lat="41.74961" lon="9.28452">
        <ele>289</ele>
        <time>2022-01-16T10:55:38Z</time>
      </trkpt>
      <trkpt lat="41.74952" lon="9.28446">
        <ele>286</ele>
        <time>2022-01-16T10:55:24Z</time>
      </trkpt>
      <trkpt lat="41.74943" lon="9.28449">
        <ele>279.5</ele>
        <time>2022-01-16T10:54:59Z</time>
      </trkpt>
      <trkpt lat="41.74935" lon="9.28456">
        <ele>278</ele>
        <time>2022-01-16T10:54:55Z</time>
      </trkpt>
      <trkpt lat="41.74921" lon="9.28454">
        <ele>276.5</ele>
        <time>2022-01-16T10:54:42Z</time>
      </trkpt>
      <trkpt lat="41.74905" lon="9.28454">
        <ele>278</ele>
        <time>2022-01-16T10:54:26Z</time>
      </trkpt>
      <trkpt lat="41.74902" lon="9.28491">
        <ele>274</ele>
        <time>2022-01-16T10:53:59Z</time>
      </trkpt>
      <trkpt lat="41.74916" lon="9.2851">
        <ele>272</ele>
        <time>2022-01-16T10:53:34Z</time>
      </trkpt>
      <trkpt lat="41.74923" lon="9.2852">
        <ele>271</ele>
        <time>2022-01-16T10:53:27Z</time>
      </trkpt>
      <trkpt lat="41.74921" lon="9.28544">
        <ele>270</ele>
        <time>2022-01-16T10:53:09Z</time>
      </trkpt>
      <trkpt lat="41.74917" lon="9.28569">
        <ele>263</ele>
        <time>2022-01-16T10:52:37Z</time>
      </trkpt>
      <trkpt lat="41.74919" lon="9.28595">
        <ele>259</ele>
        <time>2022-01-16T10:52:18Z</time>
      </trkpt>
      <trkpt lat="41.74909" lon="9.28601">
        <ele>253</ele>
        <time>2022-01-16T10:51:52Z</time>
      </trkpt>
      <trkpt lat="41.74872" lon="9.28613">
        <ele>245</ele>
        <time>2022-01-16T10:51:02Z</time>
      </trkpt>
      <trkpt lat="41.74876" lon="9.28638">
        <ele>244</ele>
        <time>2022-01-16T10:50:43Z</time>
      </trkpt>
      <trkpt lat="41.74868" lon="9.28678">
        <ele>245</ele>
        <time>2022-01-16T10:50:06Z</time>
      </trkpt>
      <trkpt lat="41.74859" lon="9.28701">
        <ele>249</ele>
        <time>2022-01-16T10:49:49Z</time>
      </trkpt>
      <trkpt lat="41.7485" lon="9.28731">
        <ele>249</ele>
        <time>2022-01-16T10:49:17Z</time>
      </trkpt>
      <trkpt lat="41.74841" lon="9.28738">
        <ele>249</ele>
        <time>2022-01-16T10:49:07Z</time>
      </trkpt>
      <trkpt lat="41.74822" lon="9.28746">
        <ele>244</ele>
        <time>2022-01-16T10:48:32Z</time>
      </trkpt>
      <trkpt lat="41.74812" lon="9.28749">
        <ele>242</ele>
        <time>2022-01-16T10:48:23Z</time>
      </trkpt>
      <trkpt lat="41.74793" lon="9.28751">
        <ele>241</ele>
        <time>2022-01-16T10:48:06Z</time>
      </trkpt>
      <trkpt lat="41.74773" lon="9.28762">
        <ele>239</ele>
        <time>2022-01-16T10:47:50Z</time>
      </trkpt>
      <trkpt lat="41.74747" lon="9.28767">
        <ele>239</ele>
        <time>2022-01-16T10:47:25Z</time>
      </trkpt>
      <trkpt lat="41.74728" lon="9.28775">
        <ele>236</ele>
        <time>2022-01-16T10:47:12Z</time>
      </trkpt>
      <trkpt lat="41.74708" lon="9.28802">
        <ele>235</ele>
        <time>2022-01-16T10:46:45Z</time>
      </trkpt>
      <trkpt lat="41.7469" lon="9.28811">
        <ele>234</ele>
        <time>2022-01-16T10:46:31Z</time>
      </trkpt>
      <trkpt lat="41.74679" lon="9.28817">
        <ele>234</ele>
        <time>2022-01-16T10:46:18Z</time>
      </trkpt>
      <trkpt lat="41.74659" lon="9.28836">
        <ele>230</ele>
        <time>2022-01-16T10:44:56Z</time>
      </trkpt>
      <trkpt lat="41.74655" lon="9.28842">
        <ele>231</ele>
        <time>2022-01-16T10:44:47Z</time>
      </trkpt>
      <trkpt lat="41.74646" lon="9.28861">
        <ele>232</ele>
        <time>2022-01-16T10:44:33Z</time>
      </trkpt>
      <trkpt lat="41.74642" lon="9.28868">
        <ele>232</ele>
        <time>2022-01-16T10:44:26Z</time>
      </trkpt>
      <trkpt lat="41.74634" lon="9.28875">
        <ele>232</ele>
        <time>2022-01-16T10:44:16Z</time>
      </trkpt>
      <trkpt lat="41.74631" lon="9.28881">
        <ele>233</ele>
        <time>2022-01-16T10:44:12Z</time>
      </trkpt>
      <trkpt lat="41.7463" lon="9.28908">
        <ele>232</ele>
        <time>2022-01-16T10:43:56Z</time>
      </trkpt>
      <trkpt lat="41.74627" lon="9.28915">
        <ele>232</ele>
        <time>2022-01-16T10:43:52Z</time>
      </trkpt>
      <trkpt lat="41.7463" lon="9.28927">
        <ele>231</ele>
        <time>2022-01-16T10:43:44Z</time>
      </trkpt>
      <trkpt lat="41.74632" lon="9.28939">
        <ele>230</ele>
        <time>2022-01-16T10:43:28Z</time>
      </trkpt>
      <trkpt lat="41.74633" lon="9.28974">
        <ele>221</ele>
        <time>2022-01-16T10:42:26Z</time>
      </trkpt>
      <trkpt lat="41.74641" lon="9.28984">
        <ele>219</ele>
        <time>2022-01-16T10:42:08Z</time>
      </trkpt>
      <trkpt lat="41.74653" lon="9.28995">
        <ele>215</ele>
        <time>2022-01-16T10:41:42Z</time>
      </trkpt>
      <trkpt lat="41.74657" lon="9.28998">
        <ele>215</ele>
        <time>2022-01-16T10:41:37Z</time>
      </trkpt>
      <trkpt lat="41.74667" lon="9.29007">
        <ele>215</ele>
        <time>2022-01-16T10:41:25Z</time>
      </trkpt>
      <trkpt lat="41.74671" lon="9.2901">
        <ele>215</ele>
        <time>2022-01-16T10:41:21Z</time>
      </trkpt>
      <trkpt lat="41.74674" lon="9.29021">
        <ele>215</ele>
        <time>2022-01-16T10:41:04Z</time>
      </trkpt>
      <trkpt lat="41.7467" lon="9.29041">
        <ele>210</ele>
        <time>2022-01-16T10:40:42Z</time>
      </trkpt>
      <trkpt lat="41.74673" lon="9.29048">
        <ele>209</ele>
        <time>2022-01-16T10:40:34Z</time>
      </trkpt>
      <trkpt lat="41.74673" lon="9.2906">
        <ele>207</ele>
        <time>2022-01-16T10:39:50Z</time>
      </trkpt>
      <trkpt lat="41.74674" lon="9.29069">
        <ele>206</ele>
        <time>2022-01-16T10:39:34Z</time>
      </trkpt>
      <trkpt lat="41.74674" lon="9.29084">
        <ele>211</ele>
        <time>2022-01-16T10:38:46Z</time>
      </trkpt>
      <trkpt lat="41.74678" lon="9.29089">
        <ele>214</ele>
        <time>2022-01-16T10:38:37Z</time>
      </trkpt>
      <trkpt lat="41.74691" lon="9.29107">
        <ele>221</ele>
        <time>2022-01-16T10:37:43Z</time>
      </trkpt>
      <trkpt lat="41.74695" lon="9.29118">
        <ele>224</ele>
        <time>2022-01-16T10:37:23Z</time>
      </trkpt>
      <trkpt lat="41.74698" lon="9.29133">
        <ele>224</ele>
        <time>2022-01-16T10:37:00Z</time>
      </trkpt>
      <trkpt lat="41.74696" lon="9.29145">
        <ele>224</ele>
        <time>2022-01-16T10:36:54Z</time>
      </trkpt>
      <trkpt lat="41.74697" lon="9.29138">
        <ele>241</ele>
        <time>2022-02-05T10:35:59Z</time>
      </trkpt>
      <trkpt lat="41.74695" lon="9.29156">
        <ele>241</ele>
        <time>2022-02-05T10:36:31Z</time>
      </trkpt>
      <trkpt lat="41.74696" lon="9.29158">
        <ele>240</ele>
        <time>2022-02-05T10:38:38Z</time>
      </trkpt>
      <trkpt lat="41.747" lon="9.29163">
        <ele>239</ele>
        <time>2022-02-05T10:39:38Z</time>
      </trkpt>
      <trkpt lat="41.74716" lon="9.29153">
        <ele>239</ele>
        <time>2022-02-05T10:40:31Z</time>
      </trkpt>
      <trkpt lat="41.74722" lon="9.29149">
        <ele>239</ele>
        <time>2022-02-05T10:40:42Z</time>
      </trkpt>
      <trkpt lat="41.74722" lon="9.29165">
        <ele>239</ele>
        <time>2022-02-05T10:41:23Z</time>
      </trkpt>
      <trkpt lat="41.74723" lon="9.29174">
        <ele>240</ele>
        <time>2022-02-05T10:41:35Z</time>
      </trkpt>
      <trkpt lat="41.74728" lon="9.29198">
        <ele>240</ele>
        <time>2022-02-05T10:42:30Z</time>
      </trkpt>
      <trkpt lat="41.74733" lon="9.29213">
        <ele>240</ele>
        <time>2022-02-05T10:42:50Z</time>
      </trkpt>
      <trkpt lat="41.74742" lon="9.29221">
        <ele>240</ele>
        <time>2022-02-05T10:43:07Z</time>
      </trkpt>
      <trkpt lat="41.74744" lon="9.29232">
        <ele>241</ele>
        <time>2022-02-05T10:43:39Z</time>
      </trkpt>
      <trkpt lat="41.74735" lon="9.29248">
        <ele>241</ele>
        <time>2022-02-05T10:44:03Z</time>
      </trkpt>
      <trkpt lat="41.74726" lon="9.29264">
        <ele>241</ele>
        <time>2022-02-05T10:44:29Z</time>
      </trkpt>
      <trkpt lat="41.74722" lon="9.29269">
        <ele>241</ele>
        <time>2022-02-05T10:44:35Z</time>
      </trkpt>
      <trkpt lat="41.74713" lon="9.29288">
        <ele>242</ele>
        <time>2022-02-05T10:45:27Z</time>
      </trkpt>
      <trkpt lat="41.74709" lon="9.29292">
        <ele>242</ele>
        <time>2022-02-05T10:45:37Z</time>
      </trkpt>
      <trkpt lat="41.74698" lon="9.29306">
        <ele>242</ele>
        <time>2022-02-05T10:45:53Z</time>
      </trkpt>
      <trkpt lat="41.74696" lon="9.29313">
        <ele>242</ele>
        <time>2022-02-05T10:46:00Z</time>
      </trkpt>
      <trkpt lat="41.74694" lon="9.29334">
        <ele>242</ele>
        <time>2022-02-05T10:46:20Z</time>
      </trkpt>
      <trkpt lat="41.74694" lon="9.29335">
        <ele>246.9</ele>
        <time>2022-01-29T10:19:57Z</time>
      </trkpt>
      <trkpt lat="41.74693" lon="9.29351">
        <ele>249</ele>
        <time>2022-01-29T10:20:20Z</time>
      </trkpt>
      <trkpt lat="41.74688" lon="9.29345">
        <ele>249</ele>
        <time>2022-01-29T10:20:36Z</time>
      </trkpt>
      <trkpt lat="41.7468" lon="9.29344">
        <ele>250</ele>
        <time>2022-01-29T10:20:50Z</time>
      </trkpt>
      <trkpt lat="41.74678" lon="9.2935">
        <ele>250</ele>
        <time>2022-01-29T10:20:54Z</time>
      </trkpt>
      <trkpt lat="41.74684" lon="9.29359">
        <ele>253</ele>
        <time>2022-01-29T10:21:08Z</time>
      </trkpt>
      <trkpt lat="41.7469" lon="9.29383">
        <ele>258</ele>
        <time>2022-01-29T10:21:47Z</time>
      </trkpt>
      <trkpt lat="41.74687" lon="9.29389">
        <ele>259</ele>
        <time>2022-01-29T10:22:00Z</time>
      </trkpt>
      <trkpt lat="41.74685" lon="9.294">
        <ele>256</ele>
        <time>2022-01-29T10:22:18Z</time>
      </trkpt>
      <trkpt lat="41.74683" lon="9.29407">
        <ele>257</ele>
        <time>2022-01-29T10:22:28Z</time>
      </trkpt>
      <trkpt lat="41.74671" lon="9.29408">
        <ele>258</ele>
        <time>2022-01-29T10:22:53Z</time>
      </trkpt>
      <trkpt lat="41.74668" lon="9.29404">
        <ele>256</ele>
        <time>2022-01-29T10:25:22Z</time>
      </trkpt>
      <trkpt lat="41.74658" lon="9.29402">
        <ele>252</ele>
        <time>2022-01-29T10:28:51Z</time>
      </trkpt>
      <trkpt lat="41.74644" lon="9.29401">
        <ele>248</ele>
        <time>2022-01-29T10:29:23Z</time>
      </trkpt>
      <trkpt lat="41.74638" lon="9.29408">
        <ele>247</ele>
        <time>2022-01-29T10:29:34Z</time>
      </trkpt>
      <trkpt lat="41.74633" lon="9.29412">
        <ele>247</ele>
        <time>2022-01-29T10:29:39Z</time>
      </trkpt>
      <trkpt lat="41.74629" lon="9.29422">
        <ele>247</ele>
        <time>2022-01-29T10:29:49Z</time>
      </trkpt>
      <trkpt lat="41.74629" lon="9.29414">
        <ele>247</ele>
        <time>2022-01-29T10:29:51Z</time>
      </trkpt>
      <trkpt lat="41.74624" lon="9.29422">
        <ele>247</ele>
        <time>2022-01-29T10:31:27Z</time>
      </trkpt>
      <trkpt lat="41.7462" lon="9.29425">
        <ele>246</ele>
        <time>2022-01-29T10:31:44Z</time>
      </trkpt>
      <trkpt lat="41.74622" lon="9.29438">
        <ele>247</ele>
        <time>2022-01-29T10:32:14Z</time>
      </trkpt>
      <trkpt lat="41.74619" lon="9.29444">
        <ele>248</ele>
        <time>2022-01-29T10:32:26Z</time>
      </trkpt>
      <trkpt lat="41.7461" lon="9.29445">
        <ele>249</ele>
        <time>2022-01-29T10:33:04Z</time>
      </trkpt>
      <trkpt lat="41.74606" lon="9.29448">
        <ele>249</ele>
        <time>2022-01-29T10:33:10Z</time>
      </trkpt>
      <trkpt lat="41.74592" lon="9.29448">
        <ele>246</ele>
        <time>2022-01-29T10:33:30Z</time>
      </trkpt>
      <trkpt lat="41.74584" lon="9.29453">
        <ele>245</ele>
        <time>2022-01-29T10:33:41Z</time>
      </trkpt>
      <trkpt lat="41.7458" lon="9.29462">
        <ele>245</ele>
        <time>2022-01-29T10:33:49Z</time>
      </trkpt>
      <trkpt lat="41.74566" lon="9.29468">
        <ele>243</ele>
        <time>2022-01-29T10:34:16Z</time>
      </trkpt>
      <trkpt lat="41.7456" lon="9.29471">
        <ele>242</ele>
        <time>2022-01-29T10:34:34Z</time>
      </trkpt>
      <trkpt lat="41.74547" lon="9.2947">
        <ele>240</ele>
        <time>2022-01-29T10:34:52Z</time>
      </trkpt>
      <trkpt lat="41.74538" lon="9.29472">
        <ele>238</ele>
        <time>2022-01-29T10:35:05Z</time>
      </trkpt>
      <trkpt lat="41.74531" lon="9.29484">
        <ele>238</ele>
        <time>2022-01-29T10:35:17Z</time>
      </trkpt>
      <trkpt lat="41.74529" lon="9.29489">
        <ele>237.7</ele>
        <time>2022-01-22T10:46:41Z</time>
      </trkpt>
      <trkpt lat="41.7452" lon="9.29514">
        <ele>268</ele>
        <time>2022-01-22T10:47:13Z</time>
      </trkpt>
      <trkpt lat="41.74525" lon="9.29515">
        <ele>269</ele>
        <time>2022-01-22T10:47:31Z</time>
      </trkpt>
      <trkpt lat="41.74507" lon="9.29528">
        <ele>262</ele>
        <time>2022-01-22T10:49:31Z</time>
      </trkpt>
      <trkpt lat="41.74497" lon="9.2953">
        <ele>265</ele>
        <time>2022-01-22T10:50:37Z</time>
      </trkpt>
      <trkpt lat="41.74487" lon="9.29508">
        <ele>258</ele>
        <time>2022-01-22T10:53:07Z</time>
      </trkpt>
      <trkpt lat="41.74483" lon="9.29494">
        <ele>256</ele>
        <time>2022-01-22T10:53:55Z</time>
      </trkpt>
      <trkpt lat="41.74474" lon="9.29475">
        <ele>254</ele>
        <time>2022-01-22T10:54:48Z</time>
      </trkpt>
      <trkpt lat="41.74469" lon="9.29468">
        <ele>252</ele>
        <time>2022-01-22T10:55:12Z</time>
      </trkpt>
      <trkpt lat="41.74455" lon="9.29447">
        <ele>247</ele>
        <time>2022-01-22T10:56:13Z</time>
      </trkpt>
      <trkpt lat="41.74445" lon="9.29451">
        <ele>246</ele>
        <time>2022-01-22T10:56:37Z</time>
      </trkpt>
      <trkpt lat="41.74428" lon="9.29437">
        <ele>244</ele>
        <time>2022-01-22T10:57:34Z</time>
      </trkpt>
      <trkpt lat="41.74407" lon="9.2942">
        <ele>240</ele>
        <time>2022-01-22T10:58:12Z</time>
      </trkpt>
      <trkpt lat="41.74402" lon="9.29417">
        <ele>240</ele>
        <time>2022-01-22T10:58:23Z</time>
      </trkpt>
      <trkpt lat="41.74379" lon="9.29409">
        <ele>236</ele>
        <time>2022-01-22T10:58:49Z</time>
      </trkpt>
      <trkpt lat="41.74375" lon="9.29406">
        <ele>236</ele>
        <time>2022-01-22T10:58:55Z</time>
      </trkpt>
      <trkpt lat="41.74366" lon="9.29398">
        <ele>234</ele>
        <time>2022-01-22T10:59:13Z</time>
      </trkpt>
      <trkpt lat="41.74362" lon="9.29394">
        <ele>233</ele>
        <time>2022-01-22T10:59:41Z</time>
      </trkpt>
      <trkpt lat="41.74354" lon="9.29387">
        <ele>231</ele>
        <time>2022-01-22T10:59:58Z</time>
      </trkpt>
      <trkpt lat="41.7435" lon="9.29382">
        <ele>230</ele>
        <time>2022-01-22T11:00:02Z</time>
      </trkpt>
      <trkpt lat="41.74324" lon="9.29352">
        <ele>226</ele>
        <time>2022-01-22T11:00:33Z</time>
      </trkpt>
      <trkpt lat="41.74321" lon="9.29347">
        <ele>226</ele>
        <time>2022-01-22T11:00:37Z</time>
      </trkpt>
      <trkpt lat="41.74306" lon="9.2935">
        <ele>225</ele>
        <time>2022-01-22T11:00:50Z</time>
      </trkpt>
      <trkpt lat="41.74277" lon="9.29355">
        <ele>223</ele>
        <time>2022-01-22T11:01:15Z</time>
      </trkpt>
      <trkpt lat="41.74249" lon="9.29372">
        <ele>223</ele>
        <time>2022-01-22T11:01:41Z</time>
      </trkpt>
      <trkpt lat="41.74245" lon="9.29374">
        <ele>223</ele>
        <time>2022-01-22T11:01:46Z</time>
      </trkpt>
      <trkpt lat="41.74232" lon="9.29395">
        <ele>204.5</ele>
      </trkpt>
      <trkpt lat="41.74209" lon="9.2942">
        <ele>222</ele>
        <time>2022-01-22T11:02:28Z</time>
      </trkpt>
      <trkpt lat="41.74195" lon="9.29435">
        <ele>203.7</ele>
        <time>2022-01-22T11:02:44Z</time>
      </trkpt>
      <trkpt lat="41.74187" lon="9.2945">
        <ele>221</ele>
        <time>2022-01-22T11:02:53Z</time>
      </trkpt>
      <trkpt lat="41.74167" lon="9.29481">
        <ele>217</ele>
        <time>2022-01-22T11:03:22Z</time>
      </trkpt>
      <trkpt lat="41.74164" lon="9.29515">
        <ele>198.6</ele>
        <time>2022-01-22T11:03:45Z</time>
      </trkpt>
      <trkpt lat="41.74153" lon="9.29551">
        <ele>196.3</ele>
      </trkpt>
      <trkpt lat="41.74138" lon="9.29579">
        <ele>194.6</ele>
        <time>2022-01-22T11:04:36Z</time>
      </trkpt>
      <trkpt lat="41.74123" lon="9.29595">
        <ele>193.5</ele>
        <time>2022-01-22T11:05:01Z</time>
      </trkpt>
      <trkpt lat="41.74119" lon="9.29606">
        <ele>193.5</ele>
        <time>2022-01-22T11:05:12Z</time>
      </trkpt>
      <trkpt lat="41.74123" lon="9.29652">
        <ele>197.8</ele>
      </trkpt>
      <trkpt lat="41.74122" lon="9.2968">
        <ele>200.5</ele>
      </trkpt>
      <trkpt lat="41.74121" lon="9.29716">
        <ele>202.1</ele>
      </trkpt>
      <trkpt lat="41.74086" lon="9.29713">
        <ele>263</ele>
        <time>2022-03-05T11:36:47Z</time>
      </trkpt>
      <trkpt lat="41.74075" lon="9.29712">
        <ele>202.9</ele>
      </trkpt>
      <trkpt lat="41.74051" lon="9.29663">
        <ele>200.7</ele>
      </trkpt>
      <trkpt lat="41.7403" lon="9.29641">
        <ele>201.9</ele>
      </trkpt>
      <trkpt lat="41.73984" lon="9.29595">
        <ele>199.9</ele>
      </trkpt>
      <trkpt lat="41.73949" lon="9.29531">
        <ele>198.6</ele>
      </trkpt>
      <trkpt lat="41.7391" lon="9.29465">
        <ele>193.9</ele>
      </trkpt>
      <trkpt lat="41.73875" lon="9.29428">
        <ele>190.2</ele>
      </trkpt>
      <trkpt lat="41.73864" lon="9.29406">
        <ele>187.2</ele>
      </trkpt>
      <trkpt lat="41.73826" lon="9.29393">
        <ele>184.3</ele>
      </trkpt>
      <trkpt lat="41.73787" lon="9.29418">
        <ele>183.8</ele>
      </trkpt>
      <trkpt lat="41.73753" lon="9.29424">
        <ele>182.9</ele>
      </trkpt>
      <trkpt lat="41.73729" lon="9.29339">
        <ele>182</ele>
      </trkpt>
      <trkpt lat="41.73668" lon="9.29357">
        <ele>182.1</ele>
      </trkpt>
      <trkpt lat="41.73618" lon="9.29349">
        <ele>181.6</ele>
      </trkpt>
      <trkpt lat="41.73507" lon="9.29263">
        <ele>180.5</ele>
      </trkpt>
      <trkpt lat="41.73486" lon="9.29243">
        <ele>182.4</ele>
      </trkpt>
      <trkpt lat="41.73428" lon="9.2922">
        <ele>182.5</ele>
      </trkpt>
      <trkpt lat="41.73386" lon="9.2923">
        <ele>178</ele>
      </trkpt>
      <trkpt lat="41.73352" lon="9.29228">
        <ele>182.8</ele>
      </trkpt>
      <trkpt lat="41.73309" lon="9.29265">
        <ele>178.6</ele>
      </trkpt>
      <trkpt lat="41.73282" lon="9.29265">
        <ele>180.6</ele>
      </trkpt>
      <trkpt lat="41.73264" lon="9.29262">
        <ele>180.8</ele>
      </trkpt>
      <trkpt lat="41.73264" lon="9.29262">
        <ele>180.8</ele>
      </trkpt>
    </trkseg>
  </trk>
</gpx>